sensor_id;sensor_type;location;lat;lon;timestamp;pressure;altitude;pressure_sealevel;temperature
10598;BMP180;5346;48.766;8.674;2023-04-24T00:00:41;93080.00;;;8.20
10598;BMP180;5346;48.766;8.674;2023-04-24T00:03:15;93038.00;;;8.10
10598;BMP180;5346;48.766;8.674;2023-04-24T00:05:42;93048.00;;;8.10
10598;BMP180;5346;48.766;8.674;2023-04-24T00:08:17;93067.00;;;8.20
10598;BMP180;5346;48.766;8.674;2023-04-24T00:10:51;93093.00;;;8.20
10598;BMP180;5346;48.766;8.674;2023-04-24T00:13:26;93099.00;;;8.20
10598;BMP180;5346;48.766;8.674;2023-04-24T00:15:55;93088.00;;;8.10
10598;BMP180;5346;48.766;8.674;2023-04-24T00:18:29;93102.00;;;8.10
10598;BMP180;5346;48.766;8.674;2023-04-24T00:20:56;93094.00;;;8.00
10598;BMP180;5346;48.766;8.674;2023-04-24T00:23:24;93080.00;;;8.10
10598;BMP180;5346;48.766;8.674;2023-04-24T00:25:57;93096.00;;;8.20
10598;BMP180;5346;48.766;8.674;2023-04-24T00:28:25;93090.00;;;8.20
10598;BMP180;5346;48.766;8.674;2023-04-24T00:30:58;93088.00;;;8.10
10598;BMP180;5346;48.766;8.674;2023-04-24T00:33:26;93066.00;;;8.00
10598;BMP180;5346;48.766;8.674;2023-04-24T00:35:53;93066.00;;;8.20
10598;BMP180;5346;48.766;8.674;2023-04-24T00:38:26;93085.00;;;8.20
10598;BMP180;5346;48.766;8.674;2023-04-24T00:41:01;93080.00;;;8.20
10598;BMP180;5346;48.766;8.674;2023-04-24T00:43:35;93077.00;;;8.10
10598;BMP180;5346;48.766;8.674;2023-04-24T00:46:04;93084.00;;;8.10
10598;BMP180;5346;48.766;8.674;2023-04-24T00:48:39;93086.00;;;8.10
10598;BMP180;5346;48.766;8.674;2023-04-24T00:51:08;93089.00;;;8.00
10598;BMP180;5346;48.766;8.674;2023-04-24T00:53:41;93092.00;;;8.20
10598;BMP180;5346;48.766;8.674;2023-04-24T00:56:09;93084.00;;;8.20
10598;BMP180;5346;48.766;8.674;2023-04-24T00:58:44;93077.00;;;8.20
10598;BMP180;5346;48.766;8.674;2023-04-24T01:01:12;93029.00;;;8.20
10598;BMP180;5346;48.766;8.674;2023-04-24T01:04:00;93085.00;;;8.30
10598;BMP180;5346;48.766;8.674;2023-04-24T01:06:29;93077.00;;;8.20
10598;BMP180;5346;48.766;8.674;2023-04-24T01:09:05;93069.00;;;8.30
10598;BMP180;5346;48.766;8.674;2023-04-24T01:11:34;93028.00;;;8.20
10598;BMP180;5346;48.766;8.674;2023-04-24T01:14:09;93034.00;;;8.20
10598;BMP180;5346;48.766;8.674;2023-04-24T01:16:36;93062.00;;;8.10
10598;BMP180;5346;48.766;8.674;2023-04-24T01:19:12;93077.00;;;8.00
10598;BMP180;5346;48.766;8.674;2023-04-24T01:21:43;93037.00;;;8.10
10598;BMP180;5346;48.766;8.674;2023-04-24T01:24:17;93049.00;;;8.00
10598;BMP180;5346;48.766;8.674;2023-04-24T01:26:52;93045.00;;;8.20
10598;BMP180;5346;48.766;8.674;2023-04-24T01:29:27;93054.00;;;8.00
10598;BMP180;5346;48.766;8.674;2023-04-24T01:32:00;93004.00;;;8.00
10598;BMP180;5346;48.766;8.674;2023-04-24T01:34:29;93009.00;;;8.00
10598;BMP180;5346;48.766;8.674;2023-04-24T01:37:03;93023.00;;;8.00
10598;BMP180;5346;48.766;8.674;2023-04-24T01:39:38;93021.00;;;8.20
10598;BMP180;5346;48.766;8.674;2023-04-24T01:42:06;93044.00;;;8.10
10598;BMP180;5346;48.766;8.674;2023-04-24T01:44:41;93024.00;;;8.00
10598;BMP180;5346;48.766;8.674;2023-04-24T01:47:09;93021.00;;;8.00
10598;BMP180;5346;48.766;8.674;2023-04-24T01:49:42;93002.00;;;7.90
10598;BMP180;5346;48.766;8.674;2023-04-24T01:52:10;93002.00;;;7.80
10598;BMP180;5346;48.766;8.674;2023-04-24T01:54:44;92982.00;;;7.90
10598;BMP180;5346;48.766;8.674;2023-04-24T01:57:11;93016.00;;;7.90
10598;BMP180;5346;48.766;8.674;2023-04-24T01:59:44;93007.00;;;8.00
10598;BMP180;5346;48.766;8.674;2023-04-24T02:02:18;92994.00;;;8.10
10598;BMP180;5346;48.766;8.674;2023-04-24T02:05:01;93010.00;;;8.10
10598;BMP180;5346;48.766;8.674;2023-04-24T02:07:34;93023.00;;;7.90
10598;BMP180;5346;48.766;8.674;2023-04-24T02:10:09;93007.00;;;7.90
10598;BMP180;5346;48.766;8.674;2023-04-24T02:12:43;93040.00;;;8.00
10598;BMP180;5346;48.766;8.674;2023-04-24T02:15:10;93032.00;;;7.80
10598;BMP180;5346;48.766;8.674;2023-04-24T02:17:44;93067.00;;;7.70
10598;BMP180;5346;48.766;8.674;2023-04-24T02:20:18;93066.00;;;7.60
10598;BMP180;5346;48.766;8.674;2023-04-24T02:22:52;93036.00;;;7.50
10598;BMP180;5346;48.766;8.674;2023-04-24T02:25:20;93058.00;;;7.50
10598;BMP180;5346;48.766;8.674;2023-04-24T02:27:53;93015.00;;;7.40
10598;BMP180;5346;48.766;8.674;2023-04-24T02:30:27;93055.00;;;7.40
10598;BMP180;5346;48.766;8.674;2023-04-24T02:33:01;93061.00;;;7.40
10598;BMP180;5346;48.766;8.674;2023-04-24T02:35:35;93028.00;;;7.30
10598;BMP180;5346;48.766;8.674;2023-04-24T02:38:08;93035.00;;;7.10
10598;BMP180;5346;48.766;8.674;2023-04-24T02:40:35;93057.00;;;7.10
10598;BMP180;5346;48.766;8.674;2023-04-24T02:43:09;93058.00;;;7.10
10598;BMP180;5346;48.766;8.674;2023-04-24T02:45:36;93056.00;;;7.20
10598;BMP180;5346;48.766;8.674;2023-04-24T02:48:11;93033.00;;;7.00
10598;BMP180;5346;48.766;8.674;2023-04-24T02:50:38;92992.00;;;7.10
10598;BMP180;5346;48.766;8.674;2023-04-24T02:53:11;93032.00;;;7.00
10598;BMP180;5346;48.766;8.674;2023-04-24T02:55:38;93062.00;;;7.00
10598;BMP180;5346;48.766;8.674;2023-04-24T02:58:12;93054.00;;;7.10
10598;BMP180;5346;48.766;8.674;2023-04-24T03:00:39;93054.00;;;7.20
10598;BMP180;5346;48.766;8.674;2023-04-24T03:03:14;93008.00;;;7.10
10598;BMP180;5346;48.766;8.674;2023-04-24T03:05:55;93032.00;;;7.00
10598;BMP180;5346;48.766;8.674;2023-04-24T03:08:23;93035.00;;;6.90
10598;BMP180;5346;48.766;8.674;2023-04-24T03:10:58;93007.00;;;6.80
10598;BMP180;5346;48.766;8.674;2023-04-24T03:13:31;93048.00;;;6.80
10598;BMP180;5346;48.766;8.674;2023-04-24T03:15:58;93041.00;;;6.90
10598;BMP180;5346;48.766;8.674;2023-04-24T03:18:32;93020.00;;;6.70
10598;BMP180;5346;48.766;8.674;2023-04-24T03:21:06;93038.00;;;6.80
10598;BMP180;5346;48.766;8.674;2023-04-24T03:23:40;92980.00;;;6.90
10598;BMP180;5346;48.766;8.674;2023-04-24T03:26:14;93023.00;;;7.20
10598;BMP180;5346;48.766;8.674;2023-04-24T03:28:48;93014.00;;;7.00
10598;BMP180;5346;48.766;8.674;2023-04-24T03:31:22;93040.00;;;7.00
10598;BMP180;5346;48.766;8.674;2023-04-24T03:33:57;93004.00;;;7.00
10598;BMP180;5346;48.766;8.674;2023-04-24T03:36:30;93014.00;;;7.20
10598;BMP180;5346;48.766;8.674;2023-04-24T03:38:58;93042.00;;;7.20
10598;BMP180;5346;48.766;8.674;2023-04-24T03:41:33;93014.00;;;7.00
10598;BMP180;5346;48.766;8.674;2023-04-24T03:44:07;93103.00;;;6.80
10598;BMP180;5346;48.766;8.674;2023-04-24T03:46:34;93098.00;;;6.20
10598;BMP180;5346;48.766;8.674;2023-04-24T03:49:08;93075.00;;;5.80
10598;BMP180;5346;48.766;8.674;2023-04-24T03:51:35;93076.00;;;5.70
10598;BMP180;5346;48.766;8.674;2023-04-24T03:54:10;93094.00;;;5.60
10598;BMP180;5346;48.766;8.674;2023-04-24T03:56:45;93090.00;;;5.40
10598;BMP180;5346;48.766;8.674;2023-04-24T03:59:18;93059.00;;;5.40
10598;BMP180;5346;48.766;8.674;2023-04-24T04:01:59;93095.00;;;5.30
10598;BMP180;5346;48.766;8.674;2023-04-24T04:04:40;93093.00;;;5.20
10598;BMP180;5346;48.766;8.674;2023-04-24T04:07:14;93100.00;;;5.20
10598;BMP180;5346;48.766;8.674;2023-04-24T04:09:41;93094.00;;;5.30
10598;BMP180;5346;48.766;8.674;2023-04-24T04:12:09;93092.00;;;5.30
10598;BMP180;5346;48.766;8.674;2023-04-24T04:14:42;93099.00;;;5.30
10598;BMP180;5346;48.766;8.674;2023-04-24T04:17:16;93092.00;;;5.50
10598;BMP180;5346;48.766;8.674;2023-04-24T04:19:50;93063.00;;;5.40
10598;BMP180;5346;48.766;8.674;2023-04-24T04:22:17;93095.00;;;5.60
10598;BMP180;5346;48.766;8.674;2023-04-24T04:24:52;93066.00;;;5.60
10598;BMP180;5346;48.766;8.674;2023-04-24T04:27:19;93102.00;;;5.60
10598;BMP180;5346;48.766;8.674;2023-04-24T04:29:55;93096.00;;;5.70
10598;BMP180;5346;48.766;8.674;2023-04-24T04:32:33;93096.00;;;5.60
10598;BMP180;5346;48.766;8.674;2023-04-24T04:35:01;93100.00;;;5.70
10598;BMP180;5346;48.766;8.674;2023-04-24T04:37:36;93086.00;;;5.70
10598;BMP180;5346;48.766;8.674;2023-04-24T04:40:10;93053.00;;;5.80
10598;BMP180;5346;48.766;8.674;2023-04-24T04:42:47;93104.00;;;5.70
10598;BMP180;5346;48.766;8.674;2023-04-24T04:45:14;93103.00;;;5.70
10598;BMP180;5346;48.766;8.674;2023-04-24T04:47:49;93064.00;;;5.60
10598;BMP180;5346;48.766;8.674;2023-04-24T04:50:17;93095.00;;;5.60
10598;BMP180;5346;48.766;8.674;2023-04-24T04:52:53;93105.00;;;5.60
10598;BMP180;5346;48.766;8.674;2023-04-24T04:55:21;93094.00;;;5.80
10598;BMP180;5346;48.766;8.674;2023-04-24T04:57:55;93094.00;;;5.70
10598;BMP180;5346;48.766;8.674;2023-04-24T05:00:23;93115.00;;;5.70
10598;BMP180;5346;48.766;8.674;2023-04-24T05:03:08;93090.00;;;5.60
10598;BMP180;5346;48.766;8.674;2023-04-24T05:05:47;93097.00;;;5.70
10598;BMP180;5346;48.766;8.674;2023-04-24T05:08:14;93106.00;;;5.70
10598;BMP180;5346;48.766;8.674;2023-04-24T05:10:54;93111.00;;;5.70
10598;BMP180;5346;48.766;8.674;2023-04-24T05:13:28;93113.00;;;5.80
10598;BMP180;5346;48.766;8.674;2023-04-24T05:16:08;93131.00;;;5.80
10598;BMP180;5346;48.766;8.674;2023-04-24T05:18:35;93132.00;;;5.90
10598;BMP180;5346;48.766;8.674;2023-04-24T05:21:08;93141.00;;;5.80
10598;BMP180;5346;48.766;8.674;2023-04-24T05:23:43;93147.00;;;5.90
10598;BMP180;5346;48.766;8.674;2023-04-24T05:26:18;93142.00;;;6.00
10598;BMP180;5346;48.766;8.674;2023-04-24T05:28:45;93125.00;;;6.20
10598;BMP180;5346;48.766;8.674;2023-04-24T05:31:19;93128.00;;;6.20
10598;BMP180;5346;48.766;8.674;2023-04-24T05:33:47;93092.00;;;6.20
10598;BMP180;5346;48.766;8.674;2023-04-24T05:36:20;93152.00;;;6.40
10598;BMP180;5346;48.766;8.674;2023-04-24T05:38:47;93152.00;;;6.60
10598;BMP180;5346;48.766;8.674;2023-04-24T05:41:21;93153.00;;;6.60
10598;BMP180;5346;48.766;8.674;2023-04-24T05:43:49;93143.00;;;6.80
10598;BMP180;5346;48.766;8.674;2023-04-24T05:46:18;93156.00;;;7.30
10598;BMP180;5346;48.766;8.674;2023-04-24T05:48:51;93134.00;;;7.10
10598;BMP180;5346;48.766;8.674;2023-04-24T05:51:39;93167.00;;;7.60
10598;BMP180;5346;48.766;8.674;2023-04-24T05:54:14;93181.00;;;7.30
10598;BMP180;5346;48.766;8.674;2023-04-24T05:56:42;93156.00;;;7.40
10598;BMP180;5346;48.766;8.674;2023-04-24T05:59:16;93160.00;;;7.50
10598;BMP180;5346;48.766;8.674;2023-04-24T06:01:43;93172.00;;;8.20
10598;BMP180;5346;48.766;8.674;2023-04-24T06:04:32;93141.00;;;8.50
10598;BMP180;5346;48.766;8.674;2023-04-24T06:07:10;93176.00;;;8.30
10598;BMP180;5346;48.766;8.674;2023-04-24T06:09:43;93143.00;;;8.40
10598;BMP180;5346;48.766;8.674;2023-04-24T06:12:11;93175.00;;;8.60
10598;BMP180;5346;48.766;8.674;2023-04-24T06:14:46;93177.00;;;8.70
10598;BMP180;5346;48.766;8.674;2023-04-24T06:17:20;93147.00;;;8.70
10598;BMP180;5346;48.766;8.674;2023-04-24T06:19:54;93175.00;;;8.70
10598;BMP180;5346;48.766;8.674;2023-04-24T06:22:28;93179.00;;;8.40
10598;BMP180;5346;48.766;8.674;2023-04-24T06:24:55;93152.00;;;7.90
10598;BMP180;5346;48.766;8.674;2023-04-24T06:27:29;93160.00;;;7.80
10598;BMP180;5346;48.766;8.674;2023-04-24T06:29:56;93182.00;;;8.10
10598;BMP180;5346;48.766;8.674;2023-04-24T06:32:31;93155.00;;;8.20
10598;BMP180;5346;48.766;8.674;2023-04-24T06:34:58;93164.00;;;8.40
10598;BMP180;5346;48.766;8.674;2023-04-24T06:37:33;93195.00;;;8.20
10598;BMP180;5346;48.766;8.674;2023-04-24T06:40:14;93197.00;;;8.80
10598;BMP180;5346;48.766;8.674;2023-04-24T06:42:41;93199.00;;;8.30
10598;BMP180;5346;48.766;8.674;2023-04-24T06:45:16;93188.00;;;8.80
10598;BMP180;5346;48.766;8.674;2023-04-24T06:47:50;93218.00;;;8.50
10598;BMP180;5346;48.766;8.674;2023-04-24T06:50:24;93214.00;;;8.00
10598;BMP180;5346;48.766;8.674;2023-04-24T06:52:57;93206.00;;;7.90
10598;BMP180;5346;48.766;8.674;2023-04-24T06:55:31;93210.00;;;8.20
10598;BMP180;5346;48.766;8.674;2023-04-24T06:58:00;93193.00;;;8.80
10598;BMP180;5346;48.766;8.674;2023-04-24T07:00:33;93159.00;;;9.00
10598;BMP180;5346;48.766;8.674;2023-04-24T07:03:16;93206.00;;;8.50
10598;BMP180;5346;48.766;8.674;2023-04-24T07:05:51;93205.00;;;8.40
10598;BMP180;5346;48.766;8.674;2023-04-24T07:08:26;93186.00;;;8.20
10598;BMP180;5346;48.766;8.674;2023-04-24T07:11:01;93215.00;;;8.70
10598;BMP180;5346;48.766;8.674;2023-04-24T07:13:28;93200.00;;;8.90
10598;BMP180;5346;48.766;8.674;2023-04-24T07:16:01;93218.00;;;8.90
10598;BMP180;5346;48.766;8.674;2023-04-24T07:18:29;93183.00;;;9.00
10598;BMP180;5346;48.766;8.674;2023-04-24T07:21:04;93207.00;;;8.90
10598;BMP180;5346;48.766;8.674;2023-04-24T07:23:33;93202.00;;;8.60
10598;BMP180;5346;48.766;8.674;2023-04-24T07:26:07;93188.00;;;8.70
10598;BMP180;5346;48.766;8.674;2023-04-24T07:28:34;93216.00;;;8.50
10598;BMP180;5346;48.766;8.674;2023-04-24T07:31:08;93202.00;;;8.20
10598;BMP180;5346;48.766;8.674;2023-04-24T07:33:35;93230.00;;;8.20
10598;BMP180;5346;48.766;8.674;2023-04-24T07:36:09;93218.00;;;8.00
10598;BMP180;5346;48.766;8.674;2023-04-24T07:38:50;93238.00;;;7.80
10598;BMP180;5346;48.766;8.674;2023-04-24T07:41:24;93216.00;;;8.00
10598;BMP180;5346;48.766;8.674;2023-04-24T07:43:52;93178.00;;;8.00
10598;BMP180;5346;48.766;8.674;2023-04-24T07:46:26;93247.00;;;8.40
10598;BMP180;5346;48.766;8.674;2023-04-24T07:48:57;93263.00;;;8.30
10598;BMP180;5346;48.766;8.674;2023-04-24T07:51:40;93236.00;;;7.90
10598;BMP180;5346;48.766;8.674;2023-04-24T07:54:16;93251.00;;;8.40
10598;BMP180;5346;48.766;8.674;2023-04-24T07:56:50;93264.00;;;8.30
10598;BMP180;5346;48.766;8.674;2023-04-24T07:59:23;93264.00;;;7.90
10598;BMP180;5346;48.766;8.674;2023-04-24T08:01:59;93268.00;;;8.10
10598;BMP180;5346;48.766;8.674;2023-04-24T08:04:35;93278.00;;;7.90
10598;BMP180;5346;48.766;8.674;2023-04-24T08:07:09;93280.00;;;7.30
10598;BMP180;5346;48.766;8.674;2023-04-24T08:09:37;93285.00;;;6.60
10598;BMP180;5346;48.766;8.674;2023-04-24T08:12:11;93306.00;;;6.10
10598;BMP180;5346;48.766;8.674;2023-04-24T08:14:45;93276.00;;;5.90
10598;BMP180;5346;48.766;8.674;2023-04-24T08:17:19;93302.00;;;5.60
10598;BMP180;5346;48.766;8.674;2023-04-24T08:19:53;93290.00;;;5.60
10598;BMP180;5346;48.766;8.674;2023-04-24T08:22:28;93305.00;;;5.60
10598;BMP180;5346;48.766;8.674;2023-04-24T08:25:06;93324.00;;;5.70
10598;BMP180;5346;48.766;8.674;2023-04-24T08:27:33;93285.00;;;6.00
10598;BMP180;5346;48.766;8.674;2023-04-24T08:30:09;93271.00;;;6.00
10598;BMP180;5346;48.766;8.674;2023-04-24T08:32:44;93325.00;;;6.40
10598;BMP180;5346;48.766;8.674;2023-04-24T08:35:18;93300.00;;;6.80
10598;BMP180;5346;48.766;8.674;2023-04-24T08:37:46;93337.00;;;6.50
10598;BMP180;5346;48.766;8.674;2023-04-24T08:40:27;93354.00;;;6.20
10598;BMP180;5346;48.766;8.674;2023-04-24T08:42:59;93337.00;;;5.90
10598;BMP180;5346;48.766;8.674;2023-04-24T08:45:34;93341.00;;;5.90
10598;BMP180;5346;48.766;8.674;2023-04-24T08:48:04;93349.00;;;5.90
10598;BMP180;5346;48.766;8.674;2023-04-24T08:50:37;93341.00;;;6.10
10598;BMP180;5346;48.766;8.674;2023-04-24T08:53:14;93360.00;;;6.20
10598;BMP180;5346;48.766;8.674;2023-04-24T08:55:54;93333.00;;;6.30
10598;BMP180;5346;48.766;8.674;2023-04-24T08:58:22;93278.00;;;6.40
10598;BMP180;5346;48.766;8.674;2023-04-24T09:00:59;93269.00;;;6.70
10598;BMP180;5346;48.766;8.674;2023-04-24T09:03:33;93325.00;;;6.70
10598;BMP180;5346;48.766;8.674;2023-04-24T09:06:10;93336.00;;;6.60
10598;BMP180;5346;48.766;8.674;2023-04-24T09:08:43;93341.00;;;6.70
10598;BMP180;5346;48.766;8.674;2023-04-24T09:11:20;93364.00;;;6.70
10598;BMP180;5346;48.766;8.674;2023-04-24T09:13:48;93360.00;;;6.60
10598;BMP180;5346;48.766;8.674;2023-04-24T09:16:24;93330.00;;;6.20
10598;BMP180;5346;48.766;8.674;2023-04-24T09:18:53;93374.00;;;6.00
10598;BMP180;5346;48.766;8.674;2023-04-24T09:21:33;93380.00;;;5.90
10598;BMP180;5346;48.766;8.674;2023-04-24T09:24:15;93369.00;;;6.40
10598;BMP180;5346;48.766;8.674;2023-04-24T09:26:59;93384.00;;;6.00
10598;BMP180;5346;48.766;8.674;2023-04-24T09:29:28;93369.00;;;6.20
10598;BMP180;5346;48.766;8.674;2023-04-24T09:32:19;93344.00;;;6.00
10598;BMP180;5346;48.766;8.674;2023-04-24T09:34:49;93290.00;;;7.30
10598;BMP180;5346;48.766;8.674;2023-04-24T09:37:30;93346.00;;;8.10
10598;BMP180;5346;48.766;8.674;2023-04-24T09:40:18;93349.00;;;8.60
10598;BMP180;5346;48.766;8.674;2023-04-24T09:42:56;93236.00;;;8.70
10598;BMP180;5346;48.766;8.674;2023-04-24T09:45:39;93328.00;;;8.70
10598;BMP180;5346;48.766;8.674;2023-04-24T09:48:14;93314.00;;;8.90
10598;BMP180;5346;48.766;8.674;2023-04-24T09:50:46;93316.00;;;9.80
10598;BMP180;5346;48.766;8.674;2023-04-24T09:53:25;93366.00;;;9.30
10598;BMP180;5346;48.766;8.674;2023-04-24T09:56:09;93374.00;;;10.20
10598;BMP180;5346;48.766;8.674;2023-04-24T09:58:46;93335.00;;;8.90
10598;BMP180;5346;48.766;8.674;2023-04-24T10:01:14;93380.00;;;8.10
10598;BMP180;5346;48.766;8.674;2023-04-24T10:03:48;93385.00;;;8.10
10598;BMP180;5346;48.766;8.674;2023-04-24T10:06:37;93380.00;;;8.10
10598;BMP180;5346;48.766;8.674;2023-04-24T10:09:11;93333.00;;;7.90
10598;BMP180;5346;48.766;8.674;2023-04-24T10:11:49;93381.00;;;8.60
10598;BMP180;5346;48.766;8.674;2023-04-24T10:14:25;93388.00;;;8.60
10598;BMP180;5346;48.766;8.674;2023-04-24T10:16:59;93345.00;;;8.70
10598;BMP180;5346;48.766;8.674;2023-04-24T10:19:34;93345.00;;;8.60
10598;BMP180;5346;48.766;8.674;2023-04-24T10:22:09;93387.00;;;8.70
10598;BMP180;5346;48.766;8.674;2023-04-24T10:24:45;93317.00;;;7.90
10598;BMP180;5346;48.766;8.674;2023-04-24T10:27:24;93413.00;;;7.70
10598;BMP180;5346;48.766;8.674;2023-04-24T10:29:56;93427.00;;;7.30
10598;BMP180;5346;48.766;8.674;2023-04-24T10:32:30;93358.00;;;7.10
10598;BMP180;5346;48.766;8.674;2023-04-24T10:35:09;93435.00;;;6.80
10598;BMP180;5346;48.766;8.674;2023-04-24T10:38:00;93357.00;;;6.90
10598;BMP180;5346;48.766;8.674;2023-04-24T10:40:37;93430.00;;;6.90
10598;BMP180;5346;48.766;8.674;2023-04-24T10:43:07;93416.00;;;7.60
10598;BMP180;5346;48.766;8.674;2023-04-24T10:46:02;93401.00;;;8.10
10598;BMP180;5346;48.766;8.674;2023-04-24T10:48:31;93402.00;;;9.60
10598;BMP180;5346;48.766;8.674;2023-04-24T10:51:12;93381.00;;;10.90
10598;BMP180;5346;48.766;8.674;2023-04-24T10:53:41;93367.00;;;11.30
10598;BMP180;5346;48.766;8.674;2023-04-24T10:56:17;93421.00;;;10.30
10598;BMP180;5346;48.766;8.674;2023-04-24T10:58:50;93438.00;;;9.60
10598;BMP180;5346;48.766;8.674;2023-04-24T11:01:30;93437.00;;;8.50
10598;BMP180;5346;48.766;8.674;2023-04-24T11:04:03;93390.00;;;7.90
10598;BMP180;5346;48.766;8.674;2023-04-24T11:06:44;93449.00;;;7.80
10598;BMP180;5346;48.766;8.674;2023-04-24T11:09:15;93444.00;;;7.20
10598;BMP180;5346;48.766;8.674;2023-04-24T11:12:02;93384.00;;;7.60
10598;BMP180;5346;48.766;8.674;2023-04-24T11:15:00;93417.00;;;8.70
10598;BMP180;5346;48.766;8.674;2023-04-24T11:17:37;93392.00;;;10.40
10598;BMP180;5346;48.766;8.674;2023-04-24T11:20:16;93348.00;;;11.10
10598;BMP180;5346;48.766;8.674;2023-04-24T11:22:54;93376.00;;;11.80
10598;BMP180;5346;48.766;8.674;2023-04-24T11:25:22;93361.00;;;13.90
10598;BMP180;5346;48.766;8.674;2023-04-24T11:28:05;93396.00;;;14.20
10598;BMP180;5346;48.766;8.674;2023-04-24T11:30:40;93421.00;;;11.70
10598;BMP180;5346;48.766;8.674;2023-04-24T11:33:08;93353.00;;;10.00
10598;BMP180;5346;48.766;8.674;2023-04-24T11:35:43;93442.00;;;10.40
10598;BMP180;5346;48.766;8.674;2023-04-24T11:38:18;93440.00;;;10.00
10598;BMP180;5346;48.766;8.674;2023-04-24T11:40:53;93400.00;;;9.50
10598;BMP180;5346;48.766;8.674;2023-04-24T11:43:30;93440.00;;;8.80
10598;BMP180;5346;48.766;8.674;2023-04-24T11:46:05;93427.00;;;9.10
10598;BMP180;5346;48.766;8.674;2023-04-24T11:48:37;93428.00;;;9.30
10598;BMP180;5346;48.766;8.674;2023-04-24T11:51:14;93421.00;;;9.30
10598;BMP180;5346;48.766;8.674;2023-04-24T11:53:48;93387.00;;;9.50
10598;BMP180;5346;48.766;8.674;2023-04-24T11:56:31;93393.00;;;9.30
10598;BMP180;5346;48.766;8.674;2023-04-24T11:59:07;93382.00;;;10.30
10598;BMP180;5346;48.766;8.674;2023-04-24T12:01:46;93360.00;;;12.00
10598;BMP180;5346;48.766;8.674;2023-04-24T12:04:20;93369.00;;;12.00
10598;BMP180;5346;48.766;8.674;2023-04-24T12:07:02;93403.00;;;12.40
10598;BMP180;5346;48.766;8.674;2023-04-24T12:09:47;93429.00;;;11.20
10598;BMP180;5346;48.766;8.674;2023-04-24T12:12:25;93448.00;;;11.40
10598;BMP180;5346;48.766;8.674;2023-04-24T12:14:56;93471.00;;;10.50
10598;BMP180;5346;48.766;8.674;2023-04-24T12:17:33;93488.00;;;10.20
10598;BMP180;5346;48.766;8.674;2023-04-24T12:20:09;93502.00;;;8.80
10598;BMP180;5346;48.766;8.674;2023-04-24T12:22:56;93483.00;;;7.20
10598;BMP180;5346;48.766;8.674;2023-04-24T12:25:31;93483.00;;;6.90
10598;BMP180;5346;48.766;8.674;2023-04-24T12:30:39;93505.00;;;7.60
10598;BMP180;5346;48.766;8.674;2023-04-24T12:33:20;93510.00;;;7.90
10598;BMP180;5346;48.766;8.674;2023-04-24T12:35:51;93513.00;;;7.80
10598;BMP180;5346;48.766;8.674;2023-04-24T12:38:28;93509.00;;;7.20
10598;BMP180;5346;48.766;8.674;2023-04-24T12:41:06;93504.00;;;7.10
10598;BMP180;5346;48.766;8.674;2023-04-24T12:43:52;93478.00;;;7.60
10598;BMP180;5346;48.766;8.674;2023-04-24T12:46:21;93414.00;;;8.50
10598;BMP180;5346;48.766;8.674;2023-04-24T12:48:55;93473.00;;;10.00
10598;BMP180;5346;48.766;8.674;2023-04-24T12:51:23;93485.00;;;9.90
10598;BMP180;5346;48.766;8.674;2023-04-24T12:53:51;93493.00;;;9.00
10598;BMP180;5346;48.766;8.674;2023-04-24T12:56:27;93469.00;;;9.50
10598;BMP180;5346;48.766;8.674;2023-04-24T12:58:56;93468.00;;;8.40
10598;BMP180;5346;48.766;8.674;2023-04-24T13:01:30;93462.00;;;7.50
10598;BMP180;5346;48.766;8.674;2023-04-24T13:04:05;93511.00;;;6.60
10598;BMP180;5346;48.766;8.674;2023-04-24T13:06:47;93508.00;;;6.20
10598;BMP180;5346;48.766;8.674;2023-04-24T13:09:14;93473.00;;;6.50
10598;BMP180;5346;48.766;8.674;2023-04-24T13:11:48;93472.00;;;6.80
10598;BMP180;5346;48.766;8.674;2023-04-24T13:14:16;93429.00;;;8.30
10598;BMP180;5346;48.766;8.674;2023-04-24T13:16:50;93472.00;;;7.90
10598;BMP180;5346;48.766;8.674;2023-04-24T13:19:18;93454.00;;;8.50
10598;BMP180;5346;48.766;8.674;2023-04-24T13:21:57;93518.00;;;8.70
10598;BMP180;5346;48.766;8.674;2023-04-24T13:24:26;93492.00;;;7.90
10598;BMP180;5346;48.766;8.674;2023-04-24T13:27:01;93519.00;;;7.60
10598;BMP180;5346;48.766;8.674;2023-04-24T13:29:36;93515.00;;;7.20
10598;BMP180;5346;48.766;8.674;2023-04-24T13:32:11;93487.00;;;7.40
10598;BMP180;5346;48.766;8.674;2023-04-24T13:34:38;93491.00;;;7.60
10598;BMP180;5346;48.766;8.674;2023-04-24T13:37:13;93485.00;;;7.90
10598;BMP180;5346;48.766;8.674;2023-04-24T13:39:40;93476.00;;;8.90
10598;BMP180;5346;48.766;8.674;2023-04-24T13:42:14;93450.00;;;9.40
10598;BMP180;5346;48.766;8.674;2023-04-24T13:44:45;93470.00;;;10.00
10598;BMP180;5346;48.766;8.674;2023-04-24T13:47:27;93457.00;;;9.60
10598;BMP180;5346;48.766;8.674;2023-04-24T13:49:57;93510.00;;;10.80
10598;BMP180;5346;48.766;8.674;2023-04-24T13:52:34;93475.00;;;10.30
10598;BMP180;5346;48.766;8.674;2023-04-24T13:55:08;93502.00;;;9.50
10598;BMP180;5346;48.766;8.674;2023-04-24T13:57:37;93485.00;;;8.90
10598;BMP180;5346;48.766;8.674;2023-04-24T14:00:12;93501.00;;;8.30
10598;BMP180;5346;48.766;8.674;2023-04-24T14:02:47;93459.00;;;8.60
10598;BMP180;5346;48.766;8.674;2023-04-24T14:05:29;93504.00;;;8.10
10598;BMP180;5346;48.766;8.674;2023-04-24T14:07:57;93485.00;;;9.10
10598;BMP180;5346;48.766;8.674;2023-04-24T14:10:30;93485.00;;;10.00
10598;BMP180;5346;48.766;8.674;2023-04-24T14:13:05;93482.00;;;11.00
10598;BMP180;5346;48.766;8.674;2023-04-24T14:15:40;93488.00;;;11.50
10598;BMP180;5346;48.766;8.674;2023-04-24T14:18:07;93462.00;;;9.90
10598;BMP180;5346;48.766;8.674;2023-04-24T14:20:41;93439.00;;;9.40
10598;BMP180;5346;48.766;8.674;2023-04-24T14:23:08;93399.00;;;10.20
10598;BMP180;5346;48.766;8.674;2023-04-24T14:25:36;93398.00;;;11.80
10598;BMP180;5346;48.766;8.674;2023-04-24T14:28:12;93419.00;;;12.20
10598;BMP180;5346;48.766;8.674;2023-04-24T14:30:48;93471.00;;;10.90
10598;BMP180;5346;48.766;8.674;2023-04-24T14:33:16;93447.00;;;10.50
10598;BMP180;5346;48.766;8.674;2023-04-24T14:35:59;93480.00;;;9.90
10598;BMP180;5346;48.766;8.674;2023-04-24T14:38:46;93499.00;;;9.30
10598;BMP180;5346;48.766;8.674;2023-04-24T14:41:20;93456.00;;;8.70
10598;BMP180;5346;48.766;8.674;2023-04-24T14:43:55;93511.00;;;8.00
10598;BMP180;5346;48.766;8.674;2023-04-24T14:46:22;93474.00;;;7.80
10598;BMP180;5346;48.766;8.674;2023-04-24T14:49:00;93520.00;;;7.50
10598;BMP180;5346;48.766;8.674;2023-04-24T14:51:28;93492.00;;;6.90
10598;BMP180;5346;48.766;8.674;2023-04-24T14:54:02;93492.00;;;6.60
10598;BMP180;5346;48.766;8.674;2023-04-24T14:56:36;93487.00;;;7.00
10598;BMP180;5346;48.766;8.674;2023-04-24T14:59:10;93517.00;;;7.10
10598;BMP180;5346;48.766;8.674;2023-04-24T15:01:44;93516.00;;;7.00
10598;BMP180;5346;48.766;8.674;2023-04-24T15:04:36;93518.00;;;6.80
10598;BMP180;5346;48.766;8.674;2023-04-24T15:07:17;93470.00;;;6.60
10598;BMP180;5346;48.766;8.674;2023-04-24T15:09:50;93509.00;;;6.80
10598;BMP180;5346;48.766;8.674;2023-04-24T15:12:21;93485.00;;;6.50
10598;BMP180;5346;48.766;8.674;2023-04-24T15:14:55;93507.00;;;6.60